sensor_id;sensor_type;location;lat;lon;timestamp;pressure;altitude;pressure_sealevel;temperature;humidity
6032;BME280;3044;43.232;27.972;2022-11-23T00:01:13;45201.41;;;-143.84;98.09
6032;BME280;3044;43.232;27.972;2022-11-23T00:03:42;45193.78;;;-143.84;98.08
6032;BME280;3044;43.232;27.972;2022-11-23T00:06:09;45178.56;;;-143.84;98.15
6032;BME280;3044;43.232;27.972;2022-11-23T00:08:36;45193.78;;;-143.84;98.14
6032;BME280;3044;43.232;27.972;2022-11-23T00:11:04;45220.44;;;-143.84;97.68
6032;BME280;3044;43.232;27.972;2022-11-23T00:13:31;45184.25;;;-143.84;97.41
6032;BME280;3044;43.232;27.972;2022-11-23T00:16:04;45197.59;;;-143.84;97.44
6032;BME280;3044;43.232;27.972;2022-11-23T00:18:31;45184.25;;;-143.84;97.20
6032;BME280;3044;43.232;27.972;2022-11-23T00:20:58;45222.34;;;-143.84;97.49
6032;BME280;3044;43.232;27.972;2022-11-23T00:23:25;45188.06;;;-143.84;98.17
6032;BME280;3044;43.232;27.972;2022-11-23T00:25:52;45205.22;;;-143.84;98.15
6032;BME280;3044;43.232;27.972;2022-11-23T00:28:19;45176.66;;;-143.84;98.59
6032;BME280;3044;43.232;27.972;2022-11-23T00:30:50;45184.25;;;-143.84;98.61
6032;BME280;3044;43.232;27.972;2022-11-23T00:33:18;45193.78;;;-143.84;98.34
6032;BME280;3044;43.232;27.972;2022-11-23T00:35:45;45193.78;;;-143.84;98.74
6032;BME280;3044;43.232;27.972;2022-11-23T00:38:13;45201.41;;;-143.84;98.80
6032;BME280;3044;43.232;27.972;2022-11-23T00:40:40;45214.72;;;-143.84;98.73
6032;BME280;3044;43.232;27.972;2022-11-23T00:43:07;45176.66;;;-143.84;98.87
6032;BME280;3044;43.232;27.972;2022-11-23T00:45:34;45199.50;;;-143.84;99.09
6032;BME280;3044;43.232;27.972;2022-11-23T00:48:01;45197.59;;;-143.84;99.58
6032;BME280;3044;43.232;27.972;2022-11-23T00:50:30;45209.03;;;-143.84;99.60
6032;BME280;3044;43.232;27.972;2022-11-23T00:52:57;45189.97;;;-143.84;99.48
6032;BME280;3044;43.232;27.972;2022-11-23T00:55:24;45189.97;;;-143.84;99.63
6032;BME280;3044;43.232;27.972;2022-11-23T00:57:51;45174.75;;;-143.84;99.56
6032;BME280;3044;43.232;27.972;2022-11-23T01:00:18;45197.59;;;-143.84;99.52
6032;BME280;3044;43.232;27.972;2022-11-23T01:02:46;45178.56;;;-143.84;99.50
6032;BME280;3044;43.232;27.972;2022-11-23T01:05:13;45201.41;;;-143.84;99.57
6032;BME280;3044;43.232;27.972;2022-11-23T01:07:41;45201.41;;;-143.84;99.38
6032;BME280;3044;43.232;27.972;2022-11-23T01:10:08;45193.78;;;-143.84;99.39
6032;BME280;3044;43.232;27.972;2022-11-23T01:12:36;45203.31;;;-143.84;98.75
6032;BME280;3044;43.232;27.972;2022-11-23T01:15:03;45189.97;;;-143.84;98.59
6032;BME280;3044;43.232;27.972;2022-11-23T01:17:30;45188.06;;;-143.84;98.61
6032;BME280;3044;43.232;27.972;2022-11-23T01:19:57;45184.25;;;-143.84;99.20
6032;BME280;3044;43.232;27.972;2022-11-23T01:22:25;45191.88;;;-143.84;99.24
6032;BME280;3044;43.232;27.972;2022-11-23T01:24:53;45172.84;;;-143.84;99.49
6032;BME280;3044;43.232;27.972;2022-11-23T01:27:20;45189.97;;;-143.84;99.63
6032;BME280;3044;43.232;27.972;2022-11-23T01:29:47;45191.88;;;-143.84;99.62
6032;BME280;3044;43.232;27.972;2022-11-23T01:32:14;45203.31;;;-143.84;99.94
6032;BME280;3044;43.232;27.972;2022-11-23T01:34:41;45197.59;;;-143.84;100.00
6032;BME280;3044;43.232;27.972;2022-11-23T01:37:09;45178.56;;;-143.84;100.00
6032;BME280;3044;43.232;27.972;2022-11-23T01:39:36;45186.16;;;-143.84;99.92
6032;BME280;3044;43.232;27.972;2022-11-23T01:42:04;45186.16;;;-143.84;100.00
6032;BME280;3044;43.232;27.972;2022-11-23T01:44:33;45161.41;;;-143.84;100.00
6032;BME280;3044;43.232;27.972;2022-11-23T01:47:02;45214.72;;;-143.84;99.96
6032;BME280;3044;43.232;27.972;2022-11-23T01:49:33;45195.69;;;-143.84;99.94
6032;BME280;3044;43.232;27.972;2022-11-23T01:52:04;45207.13;;;-143.84;99.56
6032;BME280;3044;43.232;27.972;2022-11-23T01:54:35;45210.94;;;-143.84;99.46
6032;BME280;3044;43.232;27.972;2022-11-23T01:57:08;45170.94;;;-143.84;99.07
6032;BME280;3044;43.232;27.972;2022-11-23T01:59:36;45189.97;;;-143.84;99.34
6032;BME280;3044;43.232;27.972;2022-11-23T02:02:04;45178.56;;;-143.84;99.30
6032;BME280;3044;43.232;27.972;2022-11-23T02:04:34;45201.41;;;-143.84;99.40
6032;BME280;3044;43.232;27.972;2022-11-23T02:07:03;45176.66;;;-143.84;99.43
6032;BME280;3044;43.232;27.972;2022-11-23T02:09:32;45195.69;;;-143.84;99.70
6032;BME280;3044;43.232;27.972;2022-11-23T02:12:00;45205.22;;;-143.84;99.75
6032;BME280;3044;43.232;27.972;2022-11-23T02:14:29;45167.13;;;-143.84;99.46
6032;BME280;3044;43.232;27.972;2022-11-23T02:16:57;45170.94;;;-143.84;99.24
6032;BME280;3044;43.232;27.972;2022-11-23T02:19:32;45199.50;;;-143.84;99.09
6032;BME280;3044;43.232;27.972;2022-11-23T02:22:08;45191.88;;;-143.84;98.98
6032;BME280;3044;43.232;27.972;2022-11-23T02:24:41;45161.41;;;-143.84;98.80
6032;BME280;3044;43.232;27.972;2022-11-23T02:27:13;45189.97;;;-143.84;98.86
6032;BME280;3044;43.232;27.972;2022-11-23T02:29:41;45197.59;;;-143.84;98.85
6032;BME280;3044;43.232;27.972;2022-11-23T02:32:09;45201.41;;;-143.84;98.72
6032;BME280;3044;43.232;27.972;2022-11-23T02:34:36;45180.47;;;-143.84;98.73
6032;BME280;3044;43.232;27.972;2022-11-23T02:37:03;45193.78;;;-143.84;98.41
6032;BME280;3044;43.232;27.972;2022-11-23T02:39:35;45193.78;;;-143.84;97.88
6032;BME280;3044;43.232;27.972;2022-11-23T02:42:03;45191.88;;;-143.84;97.43
6032;BME280;3044;43.232;27.972;2022-11-23T02:44:38;45205.22;;;-143.84;97.08
6032;BME280;3044;43.232;27.972;2022-11-23T02:47:09;45201.41;;;-143.84;96.60
6032;BME280;3044;43.232;27.972;2022-11-23T02:49:38;45216.63;;;-143.84;96.21
6032;BME280;3044;43.232;27.972;2022-11-23T02:52:06;45178.56;;;-143.84;95.75
6032;BME280;3044;43.232;27.972;2022-11-23T02:54:35;45226.16;;;-143.84;94.79
6032;BME280;3044;43.232;27.972;2022-11-23T02:57:02;45197.59;;;-143.84;94.60
6032;BME280;3044;43.232;27.972;2022-11-23T02:59:29;45184.25;;;-143.84;94.63
6032;BME280;3044;43.232;27.972;2022-11-23T03:02:01;45209.03;;;-143.84;94.50
6032;BME280;3044;43.232;27.972;2022-11-23T03:04:28;45163.31;;;-143.84;94.46
6032;BME280;3044;43.232;27.972;2022-11-23T03:06:56;45214.72;;;-143.84;94.50
6032;BME280;3044;43.232;27.972;2022-11-23T03:09:23;45189.97;;;-143.84;94.49
6032;BME280;3044;43.232;27.972;2022-11-23T03:11:51;45209.03;;;-143.84;94.48
6032;BME280;3044;43.232;27.972;2022-11-23T03:14:18;45186.16;;;-143.84;94.41
6032;BME280;3044;43.232;27.972;2022-11-23T03:16:45;45163.31;;;-143.84;93.43
6032;BME280;3044;43.232;27.972;2022-11-23T03:19:14;45191.88;;;-143.84;93.57
6032;BME280;3044;43.232;27.972;2022-11-23T03:21:41;45178.56;;;-143.84;93.60
6032;BME280;3044;43.232;27.972;2022-11-23T03:24:08;45205.22;;;-143.84;93.72
6032;BME280;3044;43.232;27.972;2022-11-23T03:26:36;45195.69;;;-143.84;94.25
6032;BME280;3044;43.232;27.972;2022-11-23T03:29:03;45163.31;;;-143.84;93.67
6032;BME280;3044;43.232;27.972;2022-11-23T03:31:30;45180.47;;;-143.84;93.47
6032;BME280;3044;43.232;27.972;2022-11-23T03:33:58;45193.78;;;-143.84;94.01
6032;BME280;3044;43.232;27.972;2022-11-23T03:36:26;45209.03;;;-143.84;94.48
6032;BME280;3044;43.232;27.972;2022-11-23T03:38:53;45189.97;;;-143.84;94.55
6032;BME280;3044;43.232;27.972;2022-11-23T03:41:20;45170.94;;;-143.84;94.81
6032;BME280;3044;43.232;27.972;2022-11-23T03:43:48;45188.06;;;-143.84;94.66
6032;BME280;3044;43.232;27.972;2022-11-23T03:46:15;45172.84;;;-143.84;95.14
6032;BME280;3044;43.232;27.972;2022-11-23T03:48:42;45180.47;;;-143.84;94.48
6032;BME280;3044;43.232;27.972;2022-11-23T03:51:09;45174.75;;;-143.84;92.59
6032;BME280;3044;43.232;27.972;2022-11-23T03:53:38;45197.59;;;-143.84;92.20
6032;BME280;3044;43.232;27.972;2022-11-23T03:56:06;45176.66;;;-143.84;91.64
6032;BME280;3044;43.232;27.972;2022-11-23T03:58:33;45197.59;;;-143.84;91.35
6032;BME280;3044;43.232;27.972;2022-11-23T04:01:00;45212.84;;;-143.84;91.43
6032;BME280;3044;43.232;27.972;2022-11-23T04:03:28;45189.97;;;-143.84;90.83
6032;BME280;3044;43.232;27.972;2022-11-23T04:05:55;45216.63;;;-143.84;90.56
6032;BME280;3044;43.232;27.972;2022-11-23T04:08:22;45170.94;;;-143.84;90.81
6032;BME280;3044;43.232;27.972;2022-11-23T04:10:50;45170.94;;;-143.84;91.02
6032;BME280;3044;43.232;27.972;2022-11-23T04:13:18;45180.47;;;-143.84;91.43
6032;BME280;3044;43.232;27.972;2022-11-23T04:15:45;45184.25;;;-143.84;91.06
6032;BME280;3044;43.232;27.972;2022-11-23T04:18:12;45191.88;;;-143.84;90.58
6032;BME280;3044;43.232;27.972;2022-11-23T04:20:39;45233.78;;;-143.84;90.53
6032;BME280;3044;43.232;27.972;2022-11-23T04:23:06;45159.50;;;-143.84;90.09
6032;BME280;3044;43.232;27.972;2022-11-23T04:25:33;45197.59;;;-143.84;90.22
6032;BME280;3044;43.232;27.972;2022-11-23T04:28:02;45193.78;;;-143.84;90.77
6032;BME280;3044;43.232;27.972;2022-11-23T04:30:29;45172.84;;;-143.84;91.49
6032;BME280;3044;43.232;27.972;2022-11-23T04:32:56;45178.56;;;-143.84;91.96
6032;BME280;3044;43.232;27.972;2022-11-23T04:35:23;45205.22;;;-143.84;91.85
6032;BME280;3044;43.232;27.972;2022-11-23T04:37:50;45209.03;;;-143.84;93.87
6032;BME280;3044;43.232;27.972;2022-11-23T04:40:17;45195.69;;;-143.84;95.09
6032;BME280;3044;43.232;27.972;2022-11-23T04:42:44;45203.31;;;-143.84;95.79
6032;BME280;3044;43.232;27.972;2022-11-23T04:45:13;45203.31;;;-143.84;96.44
6032;BME280;3044;43.232;27.972;2022-11-23T04:47:40;45231.88;;;-143.84;96.81
6032;BME280;3044;43.232;27.972;2022-11-23T04:50:08;45174.75;;;-143.84;97.46
6032;BME280;3044;43.232;27.972;2022-11-23T04:52:35;45210.94;;;-143.84;97.46
6032;BME280;3044;43.232;27.972;2022-11-23T04:55:02;45218.53;;;-143.84;97.75
6032;BME280;3044;43.232;27.972;2022-11-23T04:57:29;45210.94;;;-143.84;98.46
6032;BME280;3044;43.232;27.972;2022-11-23T04:59:56;45186.16;;;-143.84;99.29
6032;BME280;3044;43.232;27.972;2022-11-23T05:02:25;45203.31;;;-143.84;99.27
6032;BME280;3044;43.232;27.972;2022-11-23T05:04:52;45193.78;;;-143.84;99.38
6032;BME280;3044;43.232;27.972;2022-11-23T05:07:19;45161.41;;;-143.84;99.43
6032;BME280;3044;43.232;27.972;2022-11-23T05:09:46;45201.41;;;-143.84;99.80
6032;BME280;3044;43.232;27.972;2022-11-23T05:12:13;45191.88;;;-143.84;99.52
6032;BME280;3044;43.232;27.972;2022-11-23T05:14:40;45188.06;;;-143.84;99.35
6032;BME280;3044;43.232;27.972;2022-11-23T05:17:08;45201.41;;;-143.84;99.09
6032;BME280;3044;43.232;27.972;2022-11-23T05:19:36;45195.69;;;-143.84;99.15
6032;BME280;3044;43.232;27.972;2022-11-23T05:22:04;45203.31;;;-143.84;99.40
6032;BME280;3044;43.232;27.972;2022-11-23T05:24:31;45188.06;;;-143.84;99.32
6032;BME280;3044;43.232;27.972;2022-11-23T05:26:58;45201.41;;;-143.84;98.92
6032;BME280;3044;43.232;27.972;2022-11-23T05:29:25;45203.31;;;-143.84;98.29
6032;BME280;3044;43.232;27.972;2022-11-23T05:31:53;45209.03;;;-143.84;97.45
6032;BME280;3044;43.232;27.972;2022-11-23T05:34:20;45212.84;;;-143.84;97.35
6032;BME280;3044;43.232;27.972;2022-11-23T05:36:48;45188.06;;;-143.84;96.90
6032;BME280;3044;43.232;27.972;2022-11-23T05:39:15;45201.41;;;-143.84;96.65
6032;BME280;3044;43.232;27.972;2022-11-23T05:41:43;45201.41;;;-143.84;96.44
6032;BME280;3044;43.232;27.972;2022-11-23T05:44:10;45220.44;;;-143.84;96.81
6032;BME280;3044;43.232;27.972;2022-11-23T05:46:37;45229.97;;;-143.84;96.44
6032;BME280;3044;43.232;27.972;2022-11-23T05:49:04;45197.59;;;-143.84;94.79
6032;BME280;3044;43.232;27.972;2022-11-23T05:51:31;45210.94;;;-143.84;95.64
6032;BME280;3044;43.232;27.972;2022-11-23T05:54:00;45216.63;;;-143.84;95.83
6032;BME280;3044;43.232;27.972;2022-11-23T05:56:27;45209.03;;;-143.84;96.73
6032;BME280;3044;43.232;27.972;2022-11-23T05:58:54;45214.72;;;-143.84;97.70
6032;BME280;3044;43.232;27.972;2022-11-23T06:01:22;45218.53;;;-143.84;98.15
6032;BME280;3044;43.232;27.972;2022-11-23T06:03:49;45205.22;;;-143.84;98.63
6032;BME280;3044;43.232;27.972;2022-11-23T06:06:16;45169.03;;;-143.84;98.92
6032;BME280;3044;43.232;27.972;2022-11-23T06:08:43;45189.97;;;-143.84;98.89
6032;BME280;3044;43.232;27.972;2022-11-23T06:11:12;45189.97;;;-143.84;98.63
6032;BME280;3044;43.232;27.972;2022-11-23T06:13:39;45209.03;;;-143.84;97.32
6032;BME280;3044;43.232;27.972;2022-11-23T06:16:06;45186.16;;;-143.84;96.82
6032;BME280;3044;43.232;27.972;2022-11-23T06:18:33;45205.22;;;-143.84;97.24
6032;BME280;3044;43.232;27.972;2022-11-23T06:21:00;45188.06;;;-143.84;97.84
6032;BME280;3044;43.232;27.972;2022-11-23T06:23:28;45228.06;;;-143.84;98.32
6032;BME280;3044;43.232;27.972;2022-11-23T06:25:58;45207.13;;;-143.84;98.89
6032;BME280;3044;43.232;27.972;2022-11-23T06:28:26;45209.03;;;-143.84;99.27
6032;BME280;3044;43.232;27.972;2022-11-23T06:30:54;45207.13;;;-143.84;99.65
6032;BME280;3044;43.232;27.972;2022-11-23T06:33:22;45174.75;;;-143.84;99.88
6032;BME280;3044;43.232;27.972;2022-11-23T06:35:53;45197.59;;;-143.84;100.00
6032;BME280;3044;43.232;27.972;2022-11-23T06:38:21;45178.56;;;-143.84;100.00
6032;BME280;3044;43.232;27.972;2022-11-23T06:40:48;45199.50;;;-143.84;100.00
6032;BME280;3044;43.232;27.972;2022-11-23T06:43:15;45184.25;;;-143.84;100.00
6032;BME280;3044;43.232;27.972;2022-11-23T06:45:44;45197.59;;;-143.84;100.00
6032;BME280;3044;43.232;27.972;2022-11-23T06:48:11;45191.88;;;-143.84;100.00
6032;BME280;3044;43.232;27.972;2022-11-23T06:50:39;45188.06;;;-143.84;100.00
6032;BME280;3044;43.232;27.972;2022-11-23T06:53:06;45184.25;;;-143.84;100.00
6032;BME280;3044;43.232;27.972;2022-11-23T06:55:35;45191.88;;;-143.84;100.00
6032;BME280;3044;43.232;27.972;2022-11-23T06:58:02;45195.69;;;-143.84;100.00
6032;BME280;3044;43.232;27.972;2022-11-23T07:00:30;45205.22;;;-143.84;100.00
6032;BME280;3044;43.232;27.972;2022-11-23T07:02:59;45174.75;;;-143.84;100.00
6032;BME280;3044;43.232;27.972;2022-11-23T07:05:26;45184.25;;;-143.84;100.00
6032;BME280;3044;43.232;27.972;2022-11-23T07:07:54;45209.03;;;-143.84;100.00
6032;BME280;3044;43.232;27.972;2022-11-23T07:10:21;45178.56;;;-143.84;100.00
6032;BME280;3044;43.232;27.972;2022-11-23T07:12:48;45186.16;;;-143.84;100.00
6032;BME280;3044;43.232;27.972;2022-11-23T07:15:15;45174.75;;;-143.84;100.00
6032;BME280;3044;43.232;27.972;2022-11-23T07:17:42;45199.50;;;-143.84;100.00
6032;BME280;3044;43.232;27.972;2022-11-23T07:20:12;45163.31;;;-143.84;100.00
6032;BME280;3044;43.232;27.972;2022-11-23T07:22:39;45188.06;;;-143.84;100.00
6032;BME280;3044;43.232;27.972;2022-11-23T07:25:07;45197.59;;;-143.84;99.98
6032;BME280;3044;43.232;27.972;2022-11-23T07:27:36;45186.16;;;-143.84;100.00
6032;BME280;3044;43.232;27.972;2022-11-23T07:30:04;45210.94;;;-143.84;100.00
6032;BME280;3044;43.232;27.972;2022-11-23T07:32:31;45210.94;;;-143.84;99.86
6032;BME280;3044;43.232;27.972;2022-11-23T07:34:58;45216.63;;;-143.84;97.95
6032;BME280;3044;43.232;27.972;2022-11-23T07:37:27;45210.94;;;-143.84;97.67
6032;BME280;3044;43.232;27.972;2022-11-23T07:39:54;45170.94;;;-143.84;98.58
6032;BME280;3044;43.232;27.972;2022-11-23T07:42:21;45186.16;;;-143.84;99.27
6032;BME280;3044;43.232;27.972;2022-11-23T07:44:48;45167.13;;;-143.84;98.63
6032;BME280;3044;43.232;27.972;2022-11-23T07:47:15;45159.50;;;-143.84;98.11
6032;BME280;3044;43.232;27.972;2022-11-23T07:49:43;45212.84;;;-143.84;97.55
6032;BME280;3044;43.232;27.972;2022-11-23T07:52:10;45197.59;;;-143.84;97.56
6032;BME280;3044;43.232;27.972;2022-11-23T07:54:38;45207.13;;;-143.84;97.97
6032;BME280;3044;43.232;27.972;2022-11-23T07:57:05;45169.03;;;-143.84;97.54
6032;BME280;3044;43.232;27.972;2022-11-23T07:59:33;45197.59;;;-143.84;97.72
6032;BME280;3044;43.232;27.972;2022-11-23T08:02:00;45193.78;;;-143.84;98.18
6032;BME280;3044;43.232;27.972;2022-11-23T08:04:27;45195.69;;;-143.84;98.39
6032;BME280;3044;43.232;27.972;2022-11-23T08:06:54;45174.75;;;-143.84;98.74
6032;BME280;3044;43.232;27.972;2022-11-23T08:09:22;45218.53;;;-143.84;99.18
6032;BME280;3044;43.232;27.972;2022-11-23T08:11:50;45214.72;;;-143.84;99.17
6032;BME280;3044;43.232;27.972;2022-11-23T08:14:17;45205.22;;;-143.84;99.19
6032;BME280;3044;43.232;27.972;2022-11-23T08:16:47;45176.66;;;-143.84;99.32
6032;BME280;3044;43.232;27.972;2022-11-23T08:19:15;45184.25;;;-143.84;99.56
6032;BME280;3044;43.232;27.972;2022-11-23T08:21:43;45191.88;;;-143.84;99.46
6032;BME280;3044;43.232;27.972;2022-11-23T08:24:10;45193.78;;;-143.84;99.50
6032;BME280;3044;43.232;27.972;2022-11-23T08:26:38;45155.69;;;-143.84;99.43
6032;BME280;3044;43.232;27.972;2022-11-23T08:29:06;45184.25;;;-143.84;99.37
6032;BME280;3044;43.232;27.972;2022-11-23T08:31:33;45195.69;;;-143.84;99.49
6032;BME280;3044;43.232;27.972;2022-11-23T08:34:00;45186.16;;;-143.84;99.27
6032;BME280;3044;43.232;27.972;2022-11-23T08:36:27;45167.13;;;-143.84;98.98
6032;BME280;3044;43.232;27.972;2022-11-23T08:38:55;45170.94;;;-143.84;98.19
6032;BME280;3044;43.232;27.972;2022-11-23T08:41:22;45186.16;;;-143.84;97.48
6032;BME280;3044;43.232;27.972;2022-11-23T08:43:49;45186.16;;;-143.84;96.75
6032;BME280;3044;43.232;27.972;2022-11-23T08:46:18;45174.75;;;-143.84;97.08
6032;BME280;3044;43.232;27.972;2022-11-23T08:48:45;45199.50;;;-143.84;97.33
6032;BME280;3044;43.232;27.972;2022-11-23T08:51:12;45188.06;;;-143.84;97.27
6032;BME280;3044;43.232;27.972;2022-11-23T08:53:39;45205.22;;;-143.84;97.36
6032;BME280;3044;43.232;27.972;2022-11-23T08:56:07;45201.41;;;-143.84;97.70
6032;BME280;3044;43.232;27.972;2022-11-23T08:58:34;45193.78;;;-143.84;97.83
6032;BME280;3044;43.232;27.972;2022-11-23T09:01:06;45191.88;;;-143.84;98.03
6032;BME280;3044;43.232;27.972;2022-11-23T09:03:35;45197.59;;;-143.84;98.12
6032;BME280;3044;43.232;27.972;2022-11-23T09:06:02;45199.50;;;-143.84;98.01
6032;BME280;3044;43.232;27.972;2022-11-23T09:08:29;45180.47;;;-143.84;98.09
6032;BME280;3044;43.232;27.972;2022-11-23T09:10:59;45205.22;;;-143.84;97.87
6032;BME280;3044;43.232;27.972;2022-11-23T09:13:26;45182.38;;;-143.84;97.89
6032;BME280;3044;43.232;27.972;2022-11-23T09:15:56;45178.56;;;-143.84;98.39
6032;BME280;3044;43.232;27.972;2022-11-23T09:18:24;45199.50;;;-143.84;98.97
6032;BME280;3044;43.232;27.972;2022-11-23T09:20:53;45155.69;;;-143.84;99.31
6032;BME280;3044;43.232;27.972;2022-11-23T09:23:20;45209.03;;;-143.84;99.83
6032;BME280;3044;43.232;27.972;2022-11-23T09:25:47;45186.16;;;-143.84;100.00
6032;BME280;3044;43.232;27.972;2022-11-23T09:28:15;45153.81;;;-143.84;100.00
6032;BME280;3044;43.232;27.972;2022-11-23T09:30:44;45199.50;;;-143.84;100.00
6032;BME280;3044;43.232;27.972;2022-11-23T09:33:12;45201.41;;;-143.84;100.00
6032;BME280;3044;43.232;27.972;2022-11-23T09:35:39;45191.88;;;-143.84;100.00
6032;BME280;3044;43.232;27.972;2022-11-23T09:38:08;45262.34;;;-143.84;100.00
6032;BME280;3044;43.232;27.972;2022-11-23T09:40:37;45189.97;;;-143.84;100.00
6032;BME280;3044;43.232;27.972;2022-11-23T09:43:15;45170.94;;;-143.84;100.00
6032;BME280;3044;43.232;27.972;2022-11-23T09:45:47;45205.22;;;-143.84;100.00
6032;BME280;3044;43.232;27.972;2022-11-23T09:48:45;45176.66;;;-143.84;100.00
6032;BME280;3044;43.232;27.972;2022-11-23T09:51:16;45201.41;;;-143.84;100.00
6032;BME280;3044;43.232;27.972;2022-11-23T09:53:48;45191.88;;;-143.84;100.00
6032;BME280;3044;43.232;27.972;2022-11-23T09:56:18;45169.03;;;-143.84;100.00
6032;BME280;3044;43.232;27.972;2022-11-23T09:58:48;45169.03;;;-143.84;100.00
6032;BME280;3044;43.232;27.972;2022-11-23T10:01:19;45184.25;;;-143.84;100.00
6032;BME280;3044;43.232;27.972;2022-11-23T10:03:46;45174.75;;;-143.84;100.00
6032;BME280;3044;43.232;27.972;2022-11-23T10:06:17;45163.31;;;-143.84;100.00
6032;BME280;3044;43.232;27.972;2022-11-23T10:08:58;45161.41;;;-143.84;100.00
6032;BME280;3044;43.232;27.972;2022-11-23T10:14:37;45155.69;;;-143.84;100.00
6032;BME280;3044;43.232;27.972;2022-11-23T10:17:11;45123.34;;;-143.84;100.00
6032;BME280;3044;43.232;27.972;2022-11-23T10:19:55;45153.81;;;-143.84;100.00
6032;BME280;3044;43.232;27.972;2022-11-23T10:22:29;45161.41;;;-143.84;100.00
6032;BME280;3044;43.232;27.972;2022-11-23T10:25:07;45163.31;;;-143.84;100.00
6032;BME280;3044;43.232;27.972;2022-11-23T10:27:39;45142.38;;;-143.84;100.00
6032;BME280;3044;43.232;27.972;2022-11-23T10:30:11;45130.94;;;-143.84;100.00
6032;BME280;3044;43.232;27.972;2022-11-23T10:32:43;45155.69;;;-143.84;100.00
6032;BME280;3044;43.232;27.972;2022-11-23T10:35:14;45165.22;;;-143.84;100.00
6032;BME280;3044;43.232;27.972;2022-11-23T10:37:41;45170.94;;;-143.84;100.00
6032;BME280;3044;43.232;27.972;2022-11-23T10:40:15;45167.13;;;-143.84;100.00
6032;BME280;3044;43.232;27.972;2022-11-23T10:42:46;45180.47;;;-143.84;100.00
6032;BME280;3044;43.232;27.972;2022-11-23T10:45:18;45203.31;;;-143.84;100.00
6032;BME280;3044;43.232;27.972;2022-11-23T10:47:50;45140.47;;;-143.84;100.00
6032;BME280;3044;43.232;27.972;2022-11-23T10:50:26;45188.06;;;-143.84;100.00
6032;BME280;3044;43.232;27.972;2022-11-23T10:52:56;45163.31;;;-143.84;100.00
6032;BME280;3044;43.232;27.972;2022-11-23T10:55:28;45178.56;;;-143.84;100.00
6032;BME280;3044;43.232;27.972;2022-11-23T10:57:56;45174.75;;;-143.84;100.00
6032;BME280;3044;43.232;27.972;2022-11-23T11:00:25;45165.22;;;-143.84;100.00
6032;BME280;3044;43.232;27.972;2022-11-23T11:02:54;45163.31;;;-143.84;100.00
6032;BME280;3044;43.232;27.972;2022-11-23T11:05:30;45170.94;;;-143.84;100.00
6032;BME280;3044;43.232;27.972;2022-11-23T11:08:00;45146.19;;;-143.84;100.00
6032;BME280;3044;43.232;27.972;2022-11-23T11:10:35;45201.41;;;-143.84;100.00
6032;BME280;3044;43.232;27.972;2022-11-23T11:13:20;45142.38;;;-143.84;100.00
6032;BME280;3044;43.232;27.972;2022-11-23T11:15:51;45121.44;;;-143.84;100.00
6032;BME280;3044;43.232;27.972;2022-11-23T11:18:19;45134.75;;;-143.84;100.00
6032;BME280;3044;43.232;27.972;2022-11-23T11:20:48;45146.19;;;-143.84;100.00
6032;BME280;3044;43.232;27.972;2022-11-23T11:23:22;45132.84;;;-143.84;100.00
6032;BME280;3044;43.232;27.972;2022-11-23T11:26:05;45113.81;;;-143.84;100.00
6032;BME280;3044;43.232;27.972;2022-11-23T11:28:35;45123.34;;;-143.84;100.00
6032;BME280;3044;43.232;27.972;2022-11-23T11:31:18;45125.22;;;-143.84;100.00
6032;BME280;3044;43.232;27.972;2022-11-23T11:33:54;45100.47;;;-143.84;100.00
6032;BME280;3044;43.232;27.972;2022-11-23T11:36:24;45090.97;;;-143.84;100.00
6032;BME280;3044;43.232;27.972;2022-11-23T11:38:55;45041.44;;;-143.84;100.00
6032;BME280;3044;43.232;27.972;2022-11-23T11:41:26;45089.06;;;-143.84;100.00
6032;BME280;3044;43.232;27.972;2022-11-23T11:43:57;45043.34;;;-143.84;100.00
6032;BME280;3044;43.232;27.972;2022-11-23T11:46:30;45003.38;;;-143.84;100.00
6032;BME280;3044;43.232;27.972;2022-11-23T11:49:05;44951.97;;;-143.84;100.00
6032;BME280;3044;43.232;27.972;2022-11-23T11:51:37;44925.31;;;-143.84;100.00
6032;BME280;3044;43.232;27.972;2022-11-23T11:54:14;44868.19;;;-143.84;100.00
6032;BME280;3044;43.232;27.972;2022-11-23T11:56:49;44864.38;;;-143.84;100.00
6032;BME280;3044;43.232;27.972;2022-11-23T11:59:23;44950.06;;;-143.84;100.00
6032;BME280;3044;43.232;27.972;2022-11-23T12:01:59;44988.13;;;-143.84;100.00
6032;BME280;3044;43.232;27.972;2022-11-23T12:04:33;45018.59;;;-143.84;100.00
6032;BME280;3044;43.232;27.972;2022-11-23T12:07:04;45028.13;;;-143.84;100.00
6032;BME280;3044;43.232;27.972;2022-11-23T12:09:38;45102.38;;;-143.84;100.00
6032;BME280;3044;43.232;27.972;2022-11-23T12:12:13;45117.63;;;-143.84;100.00
6032;BME280;3044;43.232;27.972;2022-11-23T12:14:43;45142.38;;;-143.84;100.00
6032;BME280;3044;43.232;27.972;2022-11-23T12:17:29;45142.38;;;-143.84;100.00
6032;BME280;3044;43.232;27.972;2022-11-23T12:20:05;45172.84;;;-143.84;100.00
6032;BME280;3044;43.232;27.972;2022-11-23T12:22:42;45172.84;;;-143.84;100.00
6032;BME280;3044;43.232;27.972;2022-11-23T12:25:23;45167.13;;;-143.84;100.00
6032;BME280;3044;43.232;27.972;2022-11-23T12:28:17;45178.56;;;-143.84;100.00
6032;BME280;3044;43.232;27.972;2022-11-23T12:30:53;45174.75;;;-143.84;100.00
6032;BME280;3044;43.232;27.972;2022-11-23T12:36:39;45199.50;;;-143.84;100.00
6032;BME280;3044;43.232;27.972;2022-11-23T12:39:18;45174.75;;;-143.84;99.65
6032;BME280;3044;43.232;27.972;2022-11-23T12:41:55;45201.41;;;-143.84;99.23
6032;BME280;3044;43.232;27.972;2022-11-23T12:47:41;45186.16;;;-143.84;97.78
6032;BME280;3044;43.232;27.972;2022-11-23T12:50:17;45195.69;;;-143.84;97.55
6032;BME280;3044;43.232;27.972;2022-11-23T12:52:58;45207.13;;;-143.84;97.44
6032;BME280;3044;43.232;27.972;2022-11-23T12:55:32;45209.03;;;-143.84;97.47
6032;BME280;3044;43.232;27.972;2022-11-23T12:58:04;45195.69;;;-143.84;97.04
6032;BME280;3044;43.232;27.972;2022-11-23T13:00:36;45231.88;;;-143.84;96.41
6032;BME280;3044;43.232;27.972;2022-11-23T13:03:34;45210.94;;;-143.84;96.26
6032;BME280;3044;43.232;27.972;2022-11-23T13:06:22;45197.59;;;-143.84;96.09
6032;BME280;3044;43.232;27.972;2022-11-23T13:09:11;45197.59;;;-143.84;95.59